Cleveland, TN (37311)

2:52 PM EDT on July 25, 2016 (GMT -0400)
Johnson Blvd | | Change Station

Elev 1004 ft 35.15 °N, 84.86 °W | Updated 1 minute ago

Partly Cloudy
Partly Cloudy
94.5 °F
Feels Like 97 °F
N
3.0
Wind Variable Wind from NW
Gusts 3.0 mph

Today
High -- | Low -- °F
--% Chance of Precip.
Yesterday
High -- | Low -- °F
Precip. -- in
Pressure 30.02 in
Visibility 10.0 miles
Clouds Few 6500 ft
Few 12000 ft
Heat Index 97 °F
Dew Point 64 °F
Humidity 37%
Rainfall 0.00 in
Snow Depth Not available.
6:43 AM 8:47 PM
Waning Gibbous, 63% visible
METAR KRZR 251835Z AUTO 13004KT 10SM FEW065 FEW120 35/20 A3002 RMK A01
Pressure 30.02 in
Visibility 10.0 miles
Clouds Few 6500 ft
Few 12000 ft
Heat Index 97 °F
Dew Point 64 °F
Humidity 37%
Rainfall 0.00 in
Snow Depth Not available.
6:43 AM 8:47 PM
Waning Gibbous, 63% visible
METAR KRZR 251835Z AUTO 13004KT 10SM FEW065 FEW120 35/20 A3002 RMK A01
Record highs are possible for parts of the Northeast Monday and Tuesday, as parts of the central U.S. take a little breather from the worst of summer's dog day heat.

Expansive high pressure in the upper atmosphere will focus on parts of the East and West this week, sending heat indices well into the triple digits from the Mid-Atlantic states into the South.

10-Day Weather Forecast

Almanac

Astronomy

Jul. 25, 2016 Rise Set
Actual Time
Civil Twilight
Nautical Twilight
Astronomical Twilight
Moon
Length of Visible Light
Length of Day
Tomorrow will be .
, % of the Moon is Illuminated

Today's Extremes

State Highs State Lows

Community

WunderPhotos

Upload Photos

1,927,370 photos uploaded!

WunderBlog® & News

Nearby

Air Quality

  Air Quality AQ Index Pollutant
Not available.

Snow Depth

Station Depth Elevation

Earthquake Activity

City Distance Mag. Time & Date
Minimum magnitude displayed is 2.5.

Coastal Water Temperatures

Place Temperature

Stations

Nearby Weather Stations

Station Location Temp. Windchill Dew Point Humidity Wind Precip. Elev Updated Type
                   

Watches & Warnings

There are currently no watches in effect.